Aeroporto :
LOGIN :

Iscrizione | Disclaimer

   EN    FR    IT 

 










Sommario :    VFR   VFR Marginale   IFR   IFR Intensivo   IFR Molto Intensivo
Visibilità : 
Base nubi : 
>= 8 km
>= 3000ft
5 / 8 km
1000 / 3000 ft
1500m / 5 km
500 / 1000 ft
800 / 1500m
200 / 500 ft
< 800m
< 200 ft
Simboli :   Temporali  Nebbia  Neve Forte  Precipitazioni Forti  Vento > 20 kt
SIGMETs :   Varie  Temporali  Ghiacco  Turbolenza  Onda orograficha  Ceneri Vulcaniche






- Altitudine del aeroporto : 598 ft
- Codice IATA : BQH


EGKB - Biggin Hill

ULTIMO METAR :
  • 051850Z 21018KT 9999 FEW015 08/06 Q1015

METARs OBSOLETI :
  • 051820Z 22016G30KT 190V250 9999 SCT015 08/07 Q1015
  • 051750Z 21016KT 9999 -SHRA SCT010 08/06 Q1015
  • 051720Z 22015G25KT 9999 FEW010 08/06 Q1016
  • 051650Z 21016KT 9999 FEW007 07/06 Q1016
  • 051620Z 22015KT 9999 FEW007 07/06 Q1016

TAF AMD TAF EGKB
Valido dal 05 a 18 ore il 05 a 23 ore UTC


051837Z 0518/0523 22012KT 9999 SCT040
TEMPO 0518/0523 23016G28KT



MetMap, La meteo Aeronautica in un colpo d'occhio ! - Copyright ORBIFLY Dicembre 2007 - Disclaimer

ORBIFLY MET'MAP TEAM :

Programmazione e sviluppo : Alexandra Zaïnal
Concezione : Baudouin d'Aumeries
Aiuto per la programmazione : Marc-Olivier Méhu
Supporto tecnico e logistico : Manuel Goepfert
Aiuto per la traduzione : Arnaldo La Scala

Contatto : metmap@orbifly.com




FONTI E CREDITI :

   NOAA